• Join FlightAware (Why Join?)
  • Login
  • US Flag 
04:04AM EDT


 

Airport Tracker/Info


-or-


 

Live Flight TrackerFlight Track Log ✈ UAL395 ✈ 20-Jun-2013 ✈ KIAD - KORD

Flight Track Log - Related Links

Times and Time Zones

All times are in EDT time to prevent confusion due to time zone crossing. See the UAL395 flight status page for this flight to view local times or setup timezone preferences in your user account.

Time Position Orientation Groundspeed Altitude Reporting Facility
EDT Latitude Longitude Course Direction KTS MPH feet Rate Location/Type
02:39PM 38.9333 -77.5333 270° West 180 207 1,800  Level Potomac TRACON
02:42PM 38.8781 -77.8369 260° West  Level FlightAware Approximate
02:42PM 38.8992 -77.6933 255° West 266 306 7,500  Level Washington Center
02:43PM 38.8828 -77.9649 293° West  Level FlightAware Approximate
02:43PM 38.8889 -77.7997 263° West 271 312 10,700  Level Washington Center
02:43PM 38.8722 -77.9167 260° West 310 357 12,300 2,160 Climbing Washington Center
02:44PM 38.9147 -78.0920 288° West  Level FlightAware Approximate
02:44PM 38.9072 -78.0378 290° West 333 383 15,000  Level Washington Center
02:45PM 38.9500 -78.2157 270° West  Level FlightAware Approximate
02:46PM 38.9442 -78.1644 291° West 353 406 17,000  Level Washington Center
02:47PM 38.9642 -78.2986 281° West 370 426 19,100 2,040 Climbing Washington Center
02:48PM 38.9672 -78.4378 272° West 387 445 21,100 1,860 Climbing Washington Center
02:49PM 38.9722 -78.5819 273° West 399 459 22,900 1,680 Climbing Washington Center
02:50PM 38.9767 -78.7292 272° West 411 473 24,600 1,620 Climbing Washington Center
02:50PM 38.9811 -78.8814 272° West 424 488 26,200 1,380 Climbing Washington Center
02:52PM 38.9869 -79.0367 273° West 424 488 27,400 1,140 Climbing Washington Center
02:53PM 38.9908 -79.1944 272° West 429 494 28,500 1,080 Climbing Washington Center
02:54PM 38.9911 -79.3228 270° West 443 510 29,600 1,620 Climbing Washington Center
02:55PM 38.9975 -79.5153 273° West 453 521 31,800 1,140 Climbing Washington Center
02:56PM 39.0003 -79.6783 271° West 453 521 32,000 60 Climbing Washington Center
02:57PM 39.0039 -79.8175 272° West 458 527 32,000  Level Washington Center
02:58PM 39.0064 -79.9806 271° West 458 527 32,000  Level Washington Center
02:59PM 39.0089 -80.1383 271° West 453 521 32,000 420 Level Washington Center
03:00PM 39.0075 -80.3306 270° West 440 506 33,000 960 Climbing Indianapolis Center
03:01PM 39.0103 -80.4853 271° West 436 502 34,100 1,140 Climbing Indianapolis Center
03:02PM 39.0125 -80.6422 271° West 438 504 35,400 900 Climbing Indianapolis Center
03:03PM 39.0236 -80.7939 275° West 430 495 36,000 240 Climbing Indianapolis Center
03:04PM 39.0783 -80.9314 297° West 436 502 36,000  Level Indianapolis Center
03:05PM 39.1542 -81.0886 302° West 436 502 36,000  Level Indianapolis Center
03:06PM 39.2181 -81.2222 302° West 439 505 36,000  Level Indianapolis Center
03:07PM 39.2806 -81.3556 301° West 438 504 36,000 240 Level Indianapolis Center
03:08PM 39.3442 -81.4903 301° West 440 506 36,500 660 Climbing Indianapolis Center
03:09PM 39.4075 -81.6258 301° West 442 509 37,400 720 Climbing Indianapolis Center
03:10PM 39.4697 -81.7589 301° West 437 503 38,000 240 Climbing Indianapolis Center
03:11PM 39.5431 -81.9172 301° West 431 496 38,000  Level Indianapolis Center
03:12PM 39.6042 -82.0514 301° West 432 497 38,000  Level Indianapolis Center
03:13PM 39.6633 -82.1797 301° West 438 504 38,000  Level Indianapolis Center
03:14PM 39.7361 -82.3400 301° West 439 505 38,000 -60 Level Indianapolis Center
03:15PM 39.7994 -82.4758 301° West 438 504 37,900  Descending Indianapolis Center
03:16PM 39.8619 -82.6139 301° West 440 506 38,000  Climbing Indianapolis Center
03:17PM 39.9247 -82.7511 301° West 439 505 38,000  Level Indianapolis Center
03:18PM 39.9864 -82.8903 300° West 440 506 38,000  Level Indianapolis Center
03:19PM 40.0489 -83.0283 301° West 442 509 38,000  Level Indianapolis Center
03:20PM 40.1200 -83.1900 300° West 439 505 38,000  Level Indianapolis Center
03:21PM 40.1822 -83.3275 301° West 440 506 38,000 -60 Level Indianapolis Center
03:22PM 40.2431 -83.4656 300° West 439 505 37,900 -60 Descending Indianapolis Center
03:23PM 40.3033 -83.6047 300° West 438 504 37,900  Level Indianapolis Center
03:25PM 40.3647 -83.7444 300° West 440 506 38,000  Climbing Indianapolis Center
03:26PM 40.4253 -83.8842 300° West 440 506 38,000  Level Indianapolis Center
03:27PM 40.4969 -84.0494 300° West 444 511 38,000 -60 Level Indianapolis Center
03:28PM 40.5581 -84.1903 300° West 442 509 37,900 -480 Descending Indianapolis Center
03:29PM 40.6189 -84.3322 299° West 442 509 37,100 -1,560 Descending Indianapolis Center
03:30PM 40.6792 -84.4747 299° West 443 510 34,700 -1,560 Descending Indianapolis Center
03:31PM 40.7414 -84.6200 300° West 450 518 33,900 -360 Descending Indianapolis Center
03:32PM 40.8028 -84.7667 299° West 455 524 34,000 -420 Climbing Indianapolis Center
03:33PM 40.8717 -84.9406 298° West 452 520 33,100 -900 Descending Chicago Center
03:34PM 40.9281 -85.0883 297° West 450 518 32,100 -1,020 Descending Chicago Center
03:35PM 40.9853 -85.2367 297° West 452 520 31,100 -600 Descending Chicago Center
03:37PM 41.0947 -85.5267 297° West 461 531 30,300 -1,200 Descending Indianapolis Center
03:38PM 41.1547 -85.6889 296° West 451 519 27,400 -2,520 Descending Chicago Center
03:39PM 41.2194 -85.8653 296° West 442 509 25,000 -1,200 Descending Chicago Center
03:40PM 41.2758 -86.0167 296° West 452 520 25,000  Level Chicago Center
03:41PM 41.3183 -86.1769 289° West 451 519 25,000 -360 Level Chicago Center
03:42PM 41.3572 -86.3314 289° West 443 510 24,300 -960 Descending Chicago Center
03:43PM 41.3672 -86.4950 275° West 444 511 23,100 -1,500 Descending Chicago Center
03:44PM 41.3711 -86.6583 272° West 442 509 21,300 -2,340 Descending Chicago Center
03:45PM 41.3797 -86.8372 274° West 421 484 18,300 -2,760 Descending Chicago Center
03:46PM 41.4139 -86.9747 288° West 408 470 15,700 -2,580 Descending Chicago Center
03:47PM 41.4828 -87.0861 310° West 395 455 13,000 -2,280 Descending Chicago Center
03:48PM 41.5494 -87.1925 310° West 381 438 11,000 -1,020 Descending Chicago Center
03:49PM 41.6225 -87.3106 310° West 351 404 11,000 -240 Level Chicago Center
03:50PM 41.6717 -87.4114 303° West 333 383 10,600 -960 Descending Chicago Center
03:51PM 41.7119 -87.4967 302° West 283 326 9,100 -1,500 Descending Chicago Center
03:53PM 41.7556 -87.5819 304° West 279 321 7,600 -1,020 Descending Chicago Center
03:54PM 41.8050 -87.6817 304° West 272 313 7,000 -300 Descending Chicago Center
03:55PM 41.8689 -87.7233 334° Northwest 290 334 7,000  Level Chicago Center
03:56PM 41.9467 -87.7250 359° North 282 325 7,000 -480 Level Chicago Center
03:57PM 42.0128 -87.7064 12° North 253 291 6,100 -1,320 Descending Chicago Center
03:58PM 42.0719 -87.7086 358° North 237 273 4,300 -1,800 Descending Chicago Center